Time;durP1;ratioP1;P1;durP2;ratioP2;P2;SDS_P1;SDS_P2;PMS_P1;PMS_P2;Temp;Humidity;BMP_temperature;BMP_pressure;BME280_temperature;BME280_humidity;BME280_pressure;Samples;Min_cycle;Max_cycle;Signal;HPM_P1;HPM_P2
2023/07/16 00:00:04;;;;;;;6.30;5.35;;;;;;;27.60;57.70;100876.19;5068578;28;20055;-56
2023/07/16 00:02:32;;;;;;;6.05;5.40;;;;;;;27.61;57.72;100877.88;5054454;28;20056;-56
2023/07/16 00:04:59;;;;;;;5.20;4.68;;;;;;;27.62;58.01;100884.16;5060316;28;20045;-56
2023/07/16 00:07:26;;;;;;;8.43;6.20;;;;;;;27.62;57.83;100886.88;5066025;28;20404;-57
2023/07/16 00:09:54;;;;;;;8.13;5.22;;;;;;;27.65;57.93;100894.69;5057916;28;20045;-56
2023/07/16 00:12:21;;;;;;;6.18;5.47;;;;;;;27.65;58.04;100883.81;5055119;28;20408;-56
2023/07/16 00:14:49;;;;;;;6.88;5.28;;;;;;;27.67;57.78;100894.47;5068760;28;20044;-56
2023/07/16 00:17:16;;;;;;;7.28;5.20;;;;;;;27.67;57.66;100889.03;5061530;28;20481;-56
2023/07/16 00:19:43;;;;;;;6.15;5.38;;;;;;;27.68;57.72;100891.59;5069488;28;20040;-56
2023/07/16 00:22:11;;;;;;;6.28;5.00;;;;;;;27.70;57.37;100902.28;5053888;28;20051;-56
2023/07/16 00:24:38;;;;;;;5.90;5.30;;;;;;;27.70;57.87;100899.56;5061830;28;20045;-56
2023/07/16 00:27:05;;;;;;;7.00;5.60;;;;;;;27.70;57.69;100899.56;5061048;28;20051;-59
2023/07/16 00:29:33;;;;;;;5.97;5.30;;;;;;;27.71;57.73;100903.97;5069466;28;20041;-59
2023/07/16 00:32:00;;;;;;;7.65;5.68;;;;;;;27.72;57.58;100902.97;5053753;28;20053;-59
2023/07/16 00:34:28;;;;;;;7.13;5.55;;;;;;;27.74;57.55;100898.19;5060008;28;20126;-59
2023/07/16 00:37:01;;;;;;;6.93;5.75;;;;;;;27.74;57.40;100901.75;5060940;28;20036;-58
2023/07/16 00:39:29;;;;;;;5.72;5.13;;;;;;;27.76;57.62;100890.69;5069653;28;20052;-59
2023/07/16 00:41:57;;;;;;;7.15;5.72;;;;;;;27.76;57.30;100896.97;5057965;28;20515;-59
2023/07/16 00:44:24;;;;;;;7.32;5.20;;;;;;;27.76;57.34;100894.25;5063502;28;20056;-58
2023/07/16 00:46:52;;;;;;;6.57;4.78;;;;;;;27.77;57.25;100901.38;5064870;28;20067;-58
2023/07/16 00:49:20;;;;;;;6.20;5.60;;;;;;;27.77;57.27;100898.66;5056961;28;20072;-58
2023/07/16 00:51:47;;;;;;;6.63;5.53;;;;;;;27.78;57.59;100900.34;5068001;28;20051;-58
2023/07/16 00:54:15;;;;;;;6.07;4.75;;;;;;;27.79;57.43;100899.34;5061040;28;20557;-59
2023/07/16 00:56:43;;;;;;;7.50;5.30;;;;;;;27.80;57.26;100894.75;5059844;28;20056;-57
2023/07/16 00:59:10;;;;;;;6.60;4.68;;;;;;;27.81;57.56;100899.13;5068643;28;20401;-56
2023/07/16 01:01:39;;;;;;;6.50;5.47;;;;;;;27.81;57.21;100899.97;5053560;28;20041;-56
2023/07/16 01:04:07;;;;;;;6.88;5.32;;;;;;;27.82;57.55;100887.22;5060475;28;20041;-57
2023/07/16 01:06:47;;;;;;;5.43;4.88;;;;;;;27.82;57.26;100890.78;5069652;28;20075;-57
2023/07/16 01:09:19;;;;;;;6.30;5.32;;;;;;;27.83;57.50;100889.78;5067294;28;20052;-56
2023/07/16 01:11:48;;;;;;;6.28;5.10;;;;;;;27.84;57.31;100887.91;5062129;28;20407;-56
2023/07/16 01:14:19;;;;;;;5.65;5.13;;;;;;;27.85;57.06;100895.00;5066674;28;20496;-58
2023/07/16 01:16:46;;;;;;;6.45;5.25;;;;;;;27.85;57.38;100900.47;5072594;28;20060;-59
2023/07/16 01:19:14;;;;;;;5.35;4.85;;;;;;;27.85;57.36;100887.69;5058158;28;20395;-58
2023/07/16 01:21:52;;;;;;;5.63;5.03;;;;;;;27.87;57.34;100889.38;5064556;28;20049;-58
2023/07/16 01:24:37;;;;;;;5.88;5.20;;;;;;;27.88;57.31;100886.50;5068196;28;20059;-58
2023/07/16 01:27:11;;;;;;;6.35;5.40;;;;;;;27.89;57.34;100890.06;5068524;28;20048;-57
2023/07/16 01:29:49;;;;;;;5.35;4.85;;;;;;;27.88;57.04;100894.66;5062956;28;20408;-56
2023/07/16 01:32:17;;;;;;;6.18;5.15;;;;;;;27.91;57.12;100893.41;5070335;28;20060;-57
2023/07/16 01:34:45;;;;;;;7.07;6.10;;;;;;;27.92;57.01;100892.41;5058302;28;20044;-56
2023/07/16 01:37:12;;;;;;;5.65;5.00;;;;;;;27.92;57.21;100895.13;5066187;28;20056;-58
2023/07/16 01:39:40;;;;;;;7.10;5.80;;;;;;;27.92;56.96;100903.28;5069687;28;20053;-58
2023/07/16 01:42:07;;;;;;;6.13;4.72;;;;;;;27.92;57.03;100898.69;5056749;28;20041;-58
2023/07/16 01:44:35;;;;;;;5.00;4.50;;;;;;;27.93;57.08;100885.91;5067702;28;20056;-58
2023/07/16 01:47:21;;;;;;;6.72;5.88;;;;;;;27.94;57.00;100893.88;5064854;28;20080;-56
2023/07/16 01:49:49;;;;;;;6.43;5.18;;;;;;;27.94;56.89;100880.28;5067421;28;20527;-57
2023/07/16 01:52:16;;;;;;;6.03;5.43;;;;;;;27.95;57.23;100884.69;5057545;28;20056;-56
2023/07/16 01:54:44;;;;;;;5.85;4.80;;;;;;;27.96;57.26;100893.72;5067499;28;20052;-56
2023/07/16 01:57:11;;;;;;;6.15;5.07;;;;;;;27.97;57.34;100892.69;5066843;28;20056;-57
2023/07/16 01:59:38;;;;;;;7.03;5.32;;;;;;;27.97;57.00;100893.50;5072679;28;20060;-56
2023/07/16 02:02:06;;;;;;;6.55;5.05;;;;;;;27.98;57.28;100881.59;5057769;28;20053;-56
2023/07/16 02:04:33;;;;;;;6.53;5.00;;;;;;;27.99;57.00;100885.16;5059813;28;20044;-56
2023/07/16 02:07:01;;;;;;;5.90;5.10;;;;;;;27.99;57.20;100879.72;5064838;28;20393;-56
2023/07/16 02:09:29;;;;;;;5.88;5.22;;;;;;;28.01;57.25;100888.56;5070069;28;20040;-57
2023/07/16 02:11:57;;;;;;;6.32;5.05;;;;;;;28.00;57.21;100886.88;5060488;28;20052;-57
2023/07/16 02:14:25;;;;;;;6.25;5.07;;;;;;;28.02;56.78;100880.19;5069278;28;20060;-56
2023/07/16 02:16:52;;;;;;;6.70;5.47;;;;;;;28.02;57.09;100882.91;5056233;28;20053;-58
2023/07/16 02:19:19;;;;;;;5.03;4.50;;;;;;;28.03;56.97;100875.59;5070476;28;20045;-58
2023/07/16 02:21:47;;;;;;;6.78;4.93;;;;;;;28.02;57.20;100880.19;5059399;28;20060;-58
2023/07/16 02:24:14;;;;;;;6.45;5.40;;;;;;;28.04;56.92;100878.13;5070249;28;20048;-58
2023/07/16 02:26:41;;;;;;;6.07;4.75;;;;;;;28.04;56.91;100872.69;5066394;28;20416;-58
2023/07/16 02:29:11;;;;;;;5.63;5.05;;;;;;;28.04;57.07;100878.13;5074778;28;20040;-58
2023/07/16 02:31:39;;;;;;;6.18;5.28;;;;;;;28.05;57.25;100879.81;5057673;28;20056;-58
2023/07/16 02:34:08;;;;;;;5.32;4.82;;;;;;;28.04;56.87;100878.13;5075302;28;20043;-58
2023/07/16 02:36:35;;;;;;;5.65;4.97;;;;;;;28.06;57.07;100877.94;5074809;28;20040;-58
2023/07/16 02:39:03;;;;;;;5.22;4.63;;;;;;;28.05;56.97;100877.09;5074418;28;20053;-58
2023/07/16 02:41:30;;;;;;;6.00;5.40;;;;;;;28.07;57.16;100876.91;5074425;28;20055;-59
2023/07/16 02:44:03;;;;;;;5.85;5.10;;;;;;;28.08;57.05;100875.88;5068127;28;20524;-59
2023/07/16 02:46:31;;;;;;;5.47;4.55;;;;;;;28.06;57.01;100876.06;5064159;28;20522;-58
2023/07/16 02:48:58;;;;;;;5.18;4.60;;;;;;;28.08;56.77;100884.06;5059154;28;20044;-59
2023/07/16 02:51:25;;;;;;;5.55;4.75;;;;;;;28.08;56.77;100898.50;5057260;28;20049;-59
2023/07/16 02:53:53;;;;;;;6.35;4.80;;;;;;;28.09;56.72;100892.00;5074638;28;20040;-56
2023/07/16 02:56:20;;;;;;;5.13;4.63;;;;;;;28.08;56.88;100890.34;5063554;28;20057;-57
2023/07/16 02:58:48;;;;;;;6.63;5.07;;;;;;;28.10;56.58;100892.84;5067470;28;20052;-56
2023/07/16 03:01:16;;;;;;;5.50;5.00;;;;;;;28.10;56.56;100899.13;5072256;28;20051;-57
2023/07/16 03:03:43;;;;;;;8.30;5.43;;;;;;;28.10;56.70;100904.59;5066584;28;20053;-57
2023/07/16 03:06:11;;;;;;;6.30;5.30;;;;;;;28.10;56.52;100910.03;5063435;28;20079;-58
2023/07/16 03:08:38;;;;;;;4.88;4.38;;;;;;;28.11;56.89;100905.41;5058382;28;20049;-58
2023/07/16 03:11:05;;;;;;;5.70;4.70;;;;;;;28.11;56.62;100897.25;5072154;28;20044;-58
2023/07/16 03:13:33;;;;;;;4.65;4.18;;;;;;;28.10;56.79;100895.56;5073288;28;20222;-58
2023/07/16 03:16:00;;;;;;;5.90;4.60;;;;;;;28.12;56.41;100900.84;5066153;28;20404;-59
2023/07/16 03:18:29;;;;;;;5.20;4.35;;;;;;;28.12;56.75;100901.69;5073807;28;20044;-58
2023/07/16 03:20:57;;;;;;;5.78;5.10;;;;;;;28.12;56.45;100907.13;5068564;28;20056;-59
2023/07/16 03:23:25;;;;;;;5.13;4.63;;;;;;;28.13;56.40;100907.97;5059250;28;20052;-58
2023/07/16 03:25:52;;;;;;;5.72;5.13;;;;;;;28.12;56.28;100898.97;5062418;28;20053;-59
2023/07/16 03:28:20;;;;;;;6.28;4.38;;;;;;;28.13;56.32;100902.53;5068169;28;20044;-58
2023/07/16 03:30:48;;;;;;;6.57;4.93;;;;;;;28.14;56.58;100896.88;5056418;28;20419;-58
2023/07/16 03:33:16;;;;;;;5.20;4.57;;;;;;;28.14;56.57;100894.16;5059305;28;20056;-58
2023/07/16 03:35:45;;;;;;;5.00;4.50;;;;;;;28.16;56.33;100902.16;5073029;28;20055;-59
2023/07/16 03:38:13;;;;;;;7.07;4.45;;;;;;;28.14;56.29;100904.22;5072794;28;20435;-58
2023/07/16 03:40:46;;;;;;;5.97;4.68;;;;;;;28.15;56.60;100914.06;5057171;28;20056;-58
2023/07/16 03:43:17;;;;;;;5.63;4.80;;;;;;;28.15;56.38;100923.06;5064050;28;20048;-58
2023/07/16 03:45:46;;;;;;;6.30;4.78;;;;;;;28.15;56.38;100912.19;5061568;28;20064;-59
2023/07/16 03:48:13;;;;;;;5.20;4.43;;;;;;;28.15;56.61;100912.19;5069872;28;20052;-59
2023/07/16 03:50:41;;;;;;;5.85;4.57;;;;;;;28.15;56.26;100909.47;5053820;28;20055;-58
2023/07/16 03:53:08;;;;;;;6.47;5.03;;;;;;;28.15;56.31;100906.72;5062595;28;20049;-58
2023/07/16 03:55:36;;;;;;;5.78;5.05;;;;;;;28.16;56.60;100913.91;5066389;28;20503;-56
2023/07/16 03:58:04;;;;;;;5.20;4.50;;;;;;;28.16;56.57;100910.31;5056326;28;20052;-56
2023/07/16 04:00:32;;;;;;;5.53;4.53;;;;;;;28.17;56.55;100912.00;5058216;28;20057;-58
2023/07/16 04:03:00;;;;;;;5.00;4.50;;;;;;;28.17;56.55;100909.28;5063960;28;20057;-59
2023/07/16 04:05:27;;;;;;;5.45;4.50;;;;;;;28.17;56.40;100909.28;5053000;28;20512;-58
2023/07/16 04:07:54;;;;;;;5.38;4.68;;;;;;;28.16;56.18;100903.00;5069119;28;20040;-58
2023/07/16 04:10:22;;;;;;;4.50;4.03;;;;;;;28.17;56.47;100893.78;5059930;28;20044;-59
2023/07/16 04:12:49;;;;;;;5.57;4.78;;;;;;;28.17;56.57;100895.69;5064013;28;20045;-58
2023/07/16 04:15:16;;;;;;;5.70;4.82;;;;;;;28.17;56.48;100901.97;5066181;28;20047;-59
2023/07/16 04:17:44;;;;;;;5.60;4.88;;;;;;;28.17;56.02;100896.50;5057138;28;20055;-58
2023/07/16 04:20:11;;;;;;;5.53;4.38;;;;;;;28.17;56.30;100904.69;5058409;28;20040;-58
2023/07/16 04:22:39;;;;;;;5.00;4.45;;;;;;;28.17;55.90;100904.69;5064104;28;20045;-57
2023/07/16 04:25:07;;;;;;;4.47;4.07;;;;;;;28.18;55.94;100913.69;5067469;28;20047;-56
2023/07/16 04:27:35;;;;;;;4.88;4.15;;;;;;;28.18;55.91;100905.53;5070125;28;20067;-56
2023/07/16 04:30:03;;;;;;;5.57;4.55;;;;;;;28.19;55.88;100915.38;5072093;28;20045;-56
2023/07/16 04:32:30;;;;;;;5.32;4.22;;;;;;;28.19;56.24;100912.66;5072452;28;20060;-57
2023/07/16 04:34:58;;;;;;;4.95;4.10;;;;;;;28.19;55.77;100913.50;5072016;28;20047;-57
2023/07/16 04:37:25;;;;;;;4.85;4.28;;;;;;;28.19;56.17;100918.94;5070715;28;20051;-56
2023/07/16 04:39:52;;;;;;;4.90;4.30;;;;;;;28.18;55.94;100919.13;5072298;28;20036;-56
2023/07/16 04:42:20;;;;;;;5.47;4.80;;;;;;;28.19;55.66;100920.81;5071850;28;20052;-56
2023/07/16 04:44:48;;;;;;;6.32;4.40;;;;;;;28.19;56.10;100908.03;5059260;28;20060;-57
2023/07/16 04:47:15;;;;;;;7.32;4.85;;;;;;;28.19;56.07;100912.66;5068712;28;20052;-58
2023/07/16 04:49:42;;;;;;;5.53;4.00;;;;;;;28.19;55.73;100918.94;5071778;28;20052;-58
2023/07/16 04:52:10;;;;;;;4.55;4.13;;;;;;;28.20;56.02;100914.38;5071921;28;20522;-60
2023/07/16 04:54:37;;;;;;;4.85;3.80;;;;;;;28.19;55.65;100916.22;5073175;28;20044;-60
2023/07/16 04:57:07;;;;;;;4.25;3.65;;;;;;;28.19;55.09;100920.81;5070774;28;20048;-58
2023/07/16 04:59:34;;;;;;;5.97;4.03;;;;;;;28.17;54.60;100920.19;5072397;28;20040;-58
2023/07/16 05:02:05;;;;;;;4.65;3.95;;;;;;;28.17;54.26;100920.19;5071979;28;20040;-58
2023/07/16 05:04:35;;;;;;;5.65;3.88;;;;;;;28.15;54.23;100922.22;5071768;28;20045;-58
2023/07/16 05:07:03;;;;;;;4.95;3.55;;;;;;;28.13;54.35;100914.25;5056594;28;20511;-59
2023/07/16 05:09:30;;;;;;;5.72;3.45;;;;;;;28.13;53.94;100924.31;5065046;28;20045;-60
2023/07/16 05:11:58;;;;;;;4.80;3.30;;;;;;;28.12;53.92;100933.50;5063307;28;20045;-60
2023/07/16 05:14:27;;;;;;;4.35;3.67;;;;;;;28.10;54.03;100933.69;5071081;28;20075;-60
2023/07/16 05:16:56;;;;;;;5.25;3.75;;;;;;;28.10;53.82;100934.53;5070097;28;20064;-59
2023/07/16 05:19:23;;;;;;;5.22;3.45;;;;;;;28.10;54.34;100925.50;5070898;28;20055;-60
2023/07/16 05:21:51;;;;;;;4.47;3.50;;;;;;;28.11;53.97;100929.91;5071225;28;20475;-60
2023/07/16 05:24:18;;;;;;;5.28;3.60;;;;;;;28.11;54.27;100932.63;5071241;28;20056;-60
2023/07/16 05:26:46;;;;;;;4.22;3.28;;;;;;;28.11;53.90;100932.63;5069599;28;20056;-58
2023/07/16 05:29:13;;;;;;;6.38;3.70;;;;;;;28.11;54.29;100932.63;5071396;28;20531;-59
2023/07/16 05:31:42;;;;;;;4.03;3.45;;;;;;;28.09;54.03;100935.56;5074821;28;20048;-59
2023/07/16 05:34:10;;;;;;;4.60;3.83;;;;;;;28.10;54.33;100937.25;5075370;28;20055;-58
2023/07/16 05:36:37;;;;;;;5.07;3.95;;;;;;;28.10;54.34;100937.25;5073157;28;20041;-58
2023/07/16 05:39:04;;;;;;;6.15;3.92;;;;;;;28.10;54.30;100942.69;5075040;28;20067;-58
2023/07/16 05:41:32;;;;;;;4.88;3.90;;;;;;;28.11;54.17;100938.09;5074740;28;20056;-58
2023/07/16 05:43:59;;;;;;;5.53;4.05;;;;;;;28.12;54.52;100938.97;5073275;28;20056;-58
2023/07/16 05:46:26;;;;;;;4.57;3.90;;;;;;;28.12;54.43;100944.41;5073581;28;20056;-58
2023/07/16 05:48:54;;;;;;;5.38;3.75;;;;;;;28.13;54.53;100940.63;5074572;28;20052;-59
2023/07/16 05:51:21;;;;;;;4.13;3.28;;;;;;;28.13;54.05;100940.63;5074531;28;20507;-58
2023/07/16 05:53:49;;;;;;;4.65;3.58;;;;;;;28.14;54.56;100945.03;5074831;28;20040;-58
2023/07/16 05:56:16;;;;;;;5.03;3.85;;;;;;;28.15;54.69;100944.00;5071205;28;20045;-59
2023/07/16 05:58:44;;;;;;;6.28;3.90;;;;;;;28.15;54.51;100944.84;5063365;28;20044;-60
2023/07/16 06:01:11;;;;;;;4.32;3.38;;;;;;;28.15;54.77;100947.56;5064671;28;20040;-60
2023/07/16 06:03:38;;;;;;;6.47;3.78;;;;;;;28.16;54.85;100949.28;5071183;28;20052;-60
2023/07/16 06:06:09;;;;;;;4.53;3.38;;;;;;;28.17;54.32;100947.41;5058920;28;20048;-59
2023/07/16 06:08:36;;;;;;;5.10;4.05;;;;;;;28.17;54.73;100952.84;5062587;28;20048;-60
2023/07/16 06:11:04;;;;;;;4.38;3.72;;;;;;;28.18;54.84;100949.91;5063894;28;20041;-60
2023/07/16 06:13:31;;;;;;;4.30;3.30;;;;;;;28.18;54.54;100944.47;5071477;28;20048;-60
2023/07/16 06:15:59;;;;;;;4.63;3.50;;;;;;;28.19;54.53;100945.31;5073393;28;20059;-59
2023/07/16 06:18:26;;;;;;;5.82;3.72;;;;;;;28.20;54.42;100947.03;5068407;28;20052;-58
2023/07/16 06:20:55;;;;;;;4.75;3.70;;;;;;;28.20;54.92;100949.75;5067348;28;20056;-58
2023/07/16 06:23:22;;;;;;;6.03;4.18;;;;;;;28.22;54.85;100942.22;5059172;28;20409;-59
2023/07/16 06:25:54;;;;;;;6.53;4.00;;;;;;;28.23;54.93;100946.63;5071592;28;20056;-58
2023/07/16 06:28:22;;;;;;;5.88;4.22;;;;;;;28.23;54.56;100952.06;5064106;28;20049;-58
2023/07/16 06:30:52;;;;;;;4.75;3.63;;;;;;;28.22;54.14;100950.38;5062574;28;20044;-58
2023/07/16 06:33:19;;;;;;;5.93;4.32;;;;;;;28.22;54.33;100950.38;5071472;28;20059;-58
2023/07/16 06:35:47;;;;;;;5.78;4.05;;;;;;;28.20;54.01;100941.59;5072984;28;20412;-58
2023/07/16 06:38:15;;;;;;;5.45;4.32;;;;;;;28.21;54.31;100941.38;5073458;28;20049;-58
2023/07/16 06:40:49;;;;;;;4.78;4.15;;;;;;;28.22;54.16;100947.66;5072924;28;20045;-58
2023/07/16 06:43:17;;;;;;;5.45;4.60;;;;;;;28.21;54.16;100955.00;5071584;28;20048;-58
2023/07/16 06:45:45;;;;;;;5.32;4.05;;;;;;;28.22;54.58;100955.84;5073431;28;20111;-58
2023/07/16 06:48:12;;;;;;;5.47;4.40;;;;;;;28.22;54.58;100950.38;5073754;28;20408;-60
2023/07/16 06:50:40;;;;;;;5.88;4.70;;;;;;;28.23;54.87;100949.34;5073188;28;20039;-60
2023/07/16 06:53:07;;;;;;;6.47;4.47;;;;;;;28.24;55.01;100948.34;5071140;28;20048;-60
2023/07/16 06:55:35;;;;;;;6.60;4.25;;;;;;;28.25;55.04;100944.59;5069248;28;20404;-60
2023/07/16 06:58:02;;;;;;;6.85;4.20;;;;;;;28.27;54.68;100947.94;5063243;28;20362;-58
2023/07/16 07:00:30;;;;;;;4.80;3.83;;;;;;;28.28;54.72;100955.94;5073168;28;20052;-58
2023/07/16 07:02:57;;;;;;;7.28;4.85;;;;;;;28.30;54.63;100953.84;5073286;28;20045;-58
2023/07/16 07:05:25;;;;;;;5.68;4.07;;;;;;;28.31;54.69;100954.69;5072911;28;20051;-58
2023/07/16 07:07:52;;;;;;;5.53;4.28;;;;;;;28.31;54.85;100950.09;5066281;28;20040;-58
2023/07/16 07:10:20;;;;;;;7.10;5.00;;;;;;;28.31;54.95;100943.81;5056063;28;20041;-58
2023/07/16 07:12:47;;;;;;;5.93;4.72;;;;;;;28.32;54.33;100940.06;5072540;28;20048;-58
2023/07/16 07:15:15;;;;;;;5.53;3.92;;;;;;;28.32;54.06;100948.25;5074284;28;20045;-58
2023/07/16 07:17:46;;;;;;;5.82;4.80;;;;;;;28.32;54.10;100943.63;5074542;28;20048;-60
2023/07/16 07:20:14;;;;;;;5.28;4.28;;;;;;;28.33;54.57;100939.03;5074655;28;20044;-60
2023/07/16 07:22:41;;;;;;;6.28;3.92;;;;;;;28.35;54.31;100942.41;5074187;28;20044;-60
2023/07/16 07:25:09;;;;;;;6.15;4.70;;;;;;;28.34;54.35;100947.00;5074141;28;20052;-60
2023/07/16 07:27:36;;;;;;;5.43;4.50;;;;;;;28.37;54.48;100953.16;5074393;28;20071;-60
2023/07/16 07:30:04;;;;;;;8.50;5.03;;;;;;;28.38;54.74;100947.50;5074245;28;20051;-60
2023/07/16 07:32:31;;;;;;;6.25;4.97;;;;;;;28.38;54.78;100950.22;5073871;28;20064;-60
2023/07/16 07:34:59;;;;;;;7.82;4.78;;;;;;;28.39;54.85;100954.63;5073900;28;20052;-60
2023/07/16 07:37:29;;;;;;;6.10;4.57;;;;;;;28.39;54.86;100954.63;5074124;28;20048;-59
2023/07/16 07:39:59;;;;;;;9.05;5.20;;;;;;;28.40;55.32;100956.34;5074319;28;20044;-59
2023/07/16 07:42:27;;;;;;;8.65;5.03;;;;;;;28.40;54.94;100952.75;5073712;28;20059;-60
2023/07/16 07:44:57;;;;;;;7.55;5.35;;;;;;;28.41;55.24;100968.91;5065933;28;20052;-60
2023/07/16 07:47:25;;;;;;;7.88;5.45;;;;;;;28.41;55.16;100958.03;5066148;28;20507;-59
2023/07/16 07:49:53;;;;;;;6.75;5.07;;;;;;;28.43;55.05;100958.66;5074221;28;20365;-58
2023/07/16 07:52:20;;;;;;;6.18;5.30;;;;;;;28.43;55.64;100957.81;5063422;28;20044;-59
2023/07/16 07:54:48;;;;;;;7.65;5.45;;;;;;;28.43;55.59;100953.22;5072220;28;20048;-60
2023/07/16 07:57:16;;;;;;;6.78;5.60;;;;;;;28.43;55.48;100953.22;5071529;28;20041;-59
2023/07/16 07:59:45;;;;;;;7.20;5.32;;;;;;;28.44;55.35;100960.38;5071709;28;20044;-60
2023/07/16 08:02:12;;;;;;;5.65;5.05;;;;;;;28.45;55.14;100959.34;5071661;28;20041;-59
2023/07/16 08:04:39;;;;;;;5.22;4.57;;;;;;;28.46;55.47;100961.03;5071843;28;20400;-60
2023/07/16 08:07:07;;;;;;;6.07;5.47;;;;;;;28.47;55.60;100959.97;5071158;28;20052;-59
2023/07/16 08:09:34;;;;;;;6.93;5.70;;;;;;;28.48;55.33;100961.69;5059255;28;20052;-60
2023/07/16 08:12:02;;;;;;;5.60;4.93;;;;;;;28.49;55.45;100971.53;5057052;28;20045;-60
2023/07/16 08:14:29;;;;;;;6.80;5.50;;;;;;;28.49;55.28;100962.53;5068355;28;20045;-60
2023/07/16 08:16:56;;;;;;;6.93;5.32;;;;;;;28.50;55.52;100972.38;5070811;28;20044;-58
2023/07/16 08:19:24;;;;;;;6.63;5.25;;;;;;;28.51;55.20;100960.44;5057321;28;20048;-59
2023/07/16 08:21:51;;;;;;;7.35;5.65;;;;;;;28.52;55.39;100962.13;5072115;28;20052;-59
2023/07/16 08:24:19;;;;;;;6.55;5.43;;;;;;;28.53;55.02;100967.41;5072791;28;20048;-58
2023/07/16 08:26:46;;;;;;;6.78;5.40;;;;;;;28.55;55.30;100975.38;5073027;28;20051;-59
2023/07/16 08:29:14;;;;;;;8.48;6.07;;;;;;;28.54;55.23;100966.38;5072792;28;20052;-59
2023/07/16 08:31:41;;;;;;;6.28;5.63;;;;;;;28.55;55.22;100970.78;5071781;28;20052;-59
2023/07/16 08:34:09;;;;;;;6.15;5.55;;;;;;;28.57;55.01;100970.59;5073050;28;20044;-61
2023/07/16 08:36:37;;;;;;;7.25;6.10;;;;;;;28.57;55.20;100968.72;5072702;28;20045;-59
2023/07/16 08:39:05;;;;;;;8.20;5.45;;;;;;;28.58;55.33;100973.13;5066334;28;20037;-59
2023/07/16 08:41:33;;;;;;;11.88;5.60;;;;;;;28.61;55.53;100984.69;5069390;28;20056;-58
2023/07/16 08:44:01;;;;;;;8.00;5.50;;;;;;;28.61;55.14;100980.09;5064786;28;20053;-58
2023/07/16 08:46:28;;;;;;;8.98;5.30;;;;;;;28.63;55.52;100985.31;5064869;28;20061;-59
2023/07/16 08:48:57;;;;;;;6.97;5.45;;;;;;;28.64;55.86;100981.56;5072616;28;20049;-58
2023/07/16 08:51:25;;;;;;;8.05;5.53;;;;;;;28.64;55.64;100976.09;5071587;28;20111;-59
2023/07/16 08:53:52;;;;;;;6.32;5.68;;;;;;;28.64;55.67;100978.84;5072235;28;20518;-59
2023/07/16 08:56:20;;;;;;;6.18;5.55;;;;;;;28.66;55.22;100977.63;5072801;28;20048;-60
2023/07/16 08:58:49;;;;;;;8.02;5.55;;;;;;;28.67;55.36;100973.00;5071956;28;20388;-59
2023/07/16 09:01:18;;;;;;;6.93;6.20;;;;;;;28.66;55.70;100969.44;5071295;28;20041;-61
2023/07/16 09:03:50;;;;;;;6.60;5.65;;;;;;;28.67;55.91;100964.84;5070040;28;20052;-60
2023/07/16 09:06:18;;;;;;;6.40;5.72;;;;;;;28.68;55.50;100971.97;5062896;28;20052;-58
2023/07/16 09:08:46;;;;;;;9.40;6.13;;;;;;;28.69;55.69;100976.41;5074438;28;20048;-58
2023/07/16 09:11:13;;;;;;;7.18;5.63;;;;;;;28.69;56.04;100966.34;5057842;28;20037;-58
2023/07/16 09:13:45;;;;;;;7.82;5.45;;;;;;;28.70;55.80;100975.38;5064711;28;20045;-59
2023/07/16 09:16:12;;;;;;;7.03;5.28;;;;;;;28.70;55.50;100975.38;5070476;28;20048;-58
2023/07/16 09:18:41;;;;;;;6.85;6.03;;;;;;;28.71;55.99;100974.31;5074495;28;20040;-58
2023/07/16 09:21:08;;;;;;;6.30;5.70;;;;;;;28.72;55.97;100984.19;5062337;28;20045;-56
2023/07/16 09:23:36;;;;;;;7.80;6.20;;;;;;;28.71;55.99;100982.50;5074457;28;20055;-56
2023/07/16 09:26:04;;;;;;;7.28;5.75;;;;;;;28.73;55.89;100983.16;5076240;28;20063;-59
2023/07/16 09:28:32;;;;;;;6.68;5.22;;;;;;;28.73;55.07;100985.88;5060121;28;20058;-57
2023/07/16 09:31:05;;;;;;;6.93;6.07;;;;;;;28.74;54.80;100984.84;5062649;28;20055;-57
2023/07/16 09:33:33;;;;;;;6.35;5.70;;;;;;;28.75;54.87;100986.53;5075875;28;20055;-56
2023/07/16 09:36:02;;;;;;;6.15;4.80;;;;;;;28.76;54.67;100988.22;5071403;28;20412;-56
2023/07/16 09:38:31;;;;;;;7.65;5.32;;;;;;;28.76;54.79;100980.03;5073292;28;20426;-65
2023/07/16 09:40:59;;;;;;;7.57;5.55;;;;;;;28.77;55.15;100989.91;5074109;28;20041;-65
2023/07/16 09:43:26;;;;;;;9.50;6.47;;;;;;;28.76;55.33;100988.22;5075850;28;20045;-65
2023/07/16 09:45:54;;;;;;;5.72;5.20;;;;;;;28.77;55.52;100988.03;5072988;28;20048;-65
2023/07/16 09:48:21;;;;;;;9.40;6.05;;;;;;;28.77;55.94;100998.94;5073718;28;20052;-56
2023/07/16 09:50:53;;;;;;;6.38;5.65;;;;;;;28.78;56.17;100989.72;5075294;28;20051;-59
2023/07/16 09:53:21;;;;;;;7.45;6.00;;;;;;;28.79;55.88;100985.13;5074021;28;20048;-62
2023/07/16 09:55:52;;;;;;;7.10;5.80;;;;;;;28.81;56.56;100977.59;5074432;28;20048;-59
2023/07/16 09:58:22;;;;;;;8.18;6.10;;;;;;;28.82;56.75;100990.19;5074755;28;20055;-59
2023/07/16 10:00:51;;;;;;;8.35;6.30;;;;;;;28.82;56.57;100990.19;5074028;28;20052;-59
2023/07/16 10:03:18;;;;;;;6.43;5.82;;;;;;;28.82;56.65;100985.56;5061560;28;20048;-59
2023/07/16 10:05:46;;;;;;;7.60;6.80;;;;;;;28.85;56.15;100991.69;5073719;28;20048;-57
2023/07/16 10:08:18;;;;;;;7.93;5.63;;;;;;;28.85;56.32;100988.97;5073217;28;20056;-58
2023/07/16 10:10:53;;;;;;;8.45;6.15;;;;;;;28.85;56.35;100987.09;5066921;28;20045;-58
2023/07/16 10:13:23;;;;;;;6.57;5.35;;;;;;;28.89;56.25;100984.81;5056104;28;20040;-58
2023/07/16 10:15:53;;;;;;;7.47;5.65;;;;;;;28.91;56.09;100985.47;5074081;28;20045;-57
2023/07/16 10:18:23;;;;;;;7.47;5.70;;;;;;;28.93;55.53;100980.69;5073259;28;20055;-58
2023/07/16 10:20:51;;;;;;;7.20;5.28;;;;;;;28.94;55.62;100982.38;5074320;28;20420;-58
2023/07/16 10:23:19;;;;;;;7.15;5.35;;;;;;;28.93;55.92;100976.06;5073472;28;20044;-59
2023/07/16 10:26:00;;;;;;;7.30;5.90;;;;;;;28.94;55.87;100979.63;5072363;28;20476;-58
2023/07/16 10:28:28;;;;;;;7.47;5.57;;;;;;;28.94;55.99;100983.22;5074390;28;20067;-57
2023/07/16 10:30:55;;;;;;;7.75;5.68;;;;;;;28.93;56.43;100984.25;5073803;28;20055;-57
2023/07/16 10:33:23;;;;;;;7.55;5.40;;;;;;;28.92;56.78;100977.09;5072254;28;20055;-57
2023/07/16 10:35:50;;;;;;;6.78;6.07;;;;;;;28.91;57.66;100975.41;5074209;28;20044;-57
2023/07/16 10:38:18;;;;;;;6.40;5.32;;;;;;;28.90;58.44;100976.44;5071927;28;20052;-57
2023/07/16 10:40:46;;;;;;;5.93;5.30;;;;;;;28.88;58.42;100974.94;5074614;28;20049;-57
2023/07/16 10:43:14;;;;;;;6.70;6.00;;;;;;;28.86;58.17;100974.31;5072504;28;20411;-58
2023/07/16 10:45:42;;;;;;;6.18;5.38;;;;;;;28.85;58.01;100980.78;5072315;28;20049;-57
2023/07/16 10:48:09;;;;;;;9.05;5.95;;;;;;;28.83;57.81;100984.53;5074078;28;20056;-58
2023/07/16 10:50:38;;;;;;;8.82;6.20;;;;;;;28.85;58.04;100980.78;5072760;28;20048;-61
2023/07/16 10:53:05;;;;;;;6.00;5.40;;;;;;;28.84;58.18;100990.81;5071391;28;20047;-60
2023/07/16 10:55:37;;;;;;;8.13;5.57;;;;;;;28.83;58.45;100976.34;5073861;28;20388;-59
2023/07/16 10:58:06;;;;;;;8.05;5.60;;;;;;;28.84;58.51;100971.75;5072578;28;20063;-61
2023/07/16 11:00:39;;;;;;;6.03;5.43;;;;;;;28.85;58.41;100975.34;5073455;28;20416;-61
2023/07/16 11:03:06;;;;;;;7.38;5.68;;;;;;;28.87;58.96;100975.97;5071634;28;20044;-61
2023/07/16 11:05:35;;;;;;;6.45;5.75;;;;;;;28.87;59.39;100976.81;5073799;28;20049;-59
2023/07/16 11:08:02;;;;;;;6.47;5.78;;;;;;;28.87;59.74;100975.97;5073547;28;20051;-59
2023/07/16 11:10:30;;;;;;;6.35;5.50;;;;;;;28.87;59.80;100971.38;5073880;28;20040;-57
2023/07/16 11:12:58;;;;;;;7.65;5.50;;;;;;;28.88;59.50;100966.75;5056029;28;20037;-59
2023/07/16 11:15:35;;;;;;;5.93;5.32;;;;;;;28.89;59.39;100974.78;5062018;28;20048;-58
2023/07/16 11:18:03;;;;;;;5.93;5.38;;;;;;;28.89;59.26;100974.78;5067035;28;20051;-58
2023/07/16 11:20:31;;;;;;;7.35;6.22;;;;;;;28.91;59.39;100963.66;5072886;28;20049;-60
2023/07/16 11:23:01;;;;;;;6.90;5.55;;;;;;;28.91;59.36;100964.50;5071199;28;20040;-58
2023/07/16 11:25:29;;;;;;;6.75;6.03;;;;;;;28.92;59.86;100965.34;5072841;28;20049;-59
2023/07/16 11:27:57;;;;;;;7.60;5.53;;;;;;;28.93;59.90;100961.59;5072540;28;20051;-60